LiveATC.Net - Listen to live air traffic control over the Internet!


ICAO: LRTR  IATA: TSR   Airport: Traian Vuia International Airport
City: Timisoara
Country: Romania   Continent: Europe
LRTR METAR Weather: LRTR 200100Z 33007KT 9999 FEW047 07/M01 Q1026
LRTR Flight Activity (FlightAware)

LRTR Tower
Feed Status: UP   Listeners: 1
Listen in your browser - HTML5 player (in browser, HTML5)
Click here to listen with your own player (launches your MP3 player)
LRTR Tower Audio Archives
FacilityFrequency
ARAD Approach127.250
Timisoara Tower120.100

NOTICE

Unauthorized use prohibited. See LiveATC.net Terms of Service


Find LiveATC Audio Streams


Airport/ARTCC Code

Frequency Search
(e.g., 124.400, 128.75)
Site-wide search
 


Browse LiveATC Feeds
Top 50 LiveATC Feeds
LiveATC Feed Map
Bad Weather Areas

LiveATC FAQ
Offer LiveATC feed
Contact LiveATC.net
Press Inquiries

LiveATC on iPhone
LiveATC on Android

Windows Phone
Windows 8/10

LiveATC Mobile
(Mobile browser)

ATC Audio Archives
Interesting Recordings

LiveATC Forums


Home Page
About LiveATC.net
Make a Donation
Terms of Use
Privacy Policy

Canadian Air Freqs

AIRMETs/SIGMETs

FAA Airport Status
Nat'l Airspace Status
Arrival Demand Charts


Server Software By:
Icecast.org
Liquidsoap